sensor_id;sensor_type;location;lat;lon;timestamp;temperature;humidity
83289;DHT22;73193;50.866;5.420;2024-02-14T00:00:12;10.90;65.50
83289;DHT22;73193;50.866;5.420;2024-02-14T00:01:45;10.90;65.50
83289;DHT22;73193;50.866;5.420;2024-02-14T00:03:16;10.70;66.00
83289;DHT22;73193;50.866;5.420;2024-02-14T00:04:47;10.90;65.60
83289;DHT22;73193;50.866;5.420;2024-02-14T00:06:18;11.00;65.60
83289;DHT22;73193;50.866;5.420;2024-02-14T00:07:49;11.00;65.30
83289;DHT22;73193;50.866;5.420;2024-02-14T00:09:19;11.00;65.30
83289;DHT22;73193;50.866;5.420;2024-02-14T00:10:50;11.00;65.60
83289;DHT22;73193;50.866;5.420;2024-02-14T00:12:21;10.90;65.70
83289;DHT22;73193;50.866;5.420;2024-02-14T00:13:51;11.00;65.70
83289;DHT22;73193;50.866;5.420;2024-02-14T00:15:22;11.10;65.00
83289;DHT22;73193;50.866;5.420;2024-02-14T00:16:54;11.00;65.40
83289;DHT22;73193;50.866;5.420;2024-02-14T00:18:25;11.10;65.30
83289;DHT22;73193;50.866;5.420;2024-02-14T00:19:55;11.10;65.20
83289;DHT22;73193;50.866;5.420;2024-02-14T00:21:26;11.10;65.20
83289;DHT22;73193;50.866;5.420;2024-02-14T00:22:57;11.10;65.30
83289;DHT22;73193;50.866;5.420;2024-02-14T00:24:28;11.10;65.20
83289;DHT22;73193;50.866;5.420;2024-02-14T00:25:59;11.10;65.20
83289;DHT22;73193;50.866;5.420;2024-02-14T00:27:30;11.10;65.40
83289;DHT22;73193;50.866;5.420;2024-02-14T00:29:01;11.10;65.10
83289;DHT22;73193;50.866;5.420;2024-02-14T00:30:32;11.10;65.10
83289;DHT22;73193;50.866;5.420;2024-02-14T00:32:02;11.10;65.50
83289;DHT22;73193;50.866;5.420;2024-02-14T00:33:33;11.10;65.30
83289;DHT22;73193;50.866;5.420;2024-02-14T00:35:04;11.10;65.20
83289;DHT22;73193;50.866;5.420;2024-02-14T00:36:35;11.10;65.10
83289;DHT22;73193;50.866;5.420;2024-02-14T00:38:05;11.10;65.30
83289;DHT22;73193;50.866;5.420;2024-02-14T00:39:37;11.00;65.50
83289;DHT22;73193;50.866;5.420;2024-02-14T00:41:07;10.90;65.80
83289;DHT22;73193;50.866;5.420;2024-02-14T00:42:38;11.00;65.70
83289;DHT22;73193;50.866;5.420;2024-02-14T00:44:09;11.10;65.60
83289;DHT22;73193;50.866;5.420;2024-02-14T00:45:39;11.10;65.40
83289;DHT22;73193;50.866;5.420;2024-02-14T00:47:10;11.10;65.40
83289;DHT22;73193;50.866;5.420;2024-02-14T00:48:41;11.00;65.50
83289;DHT22;73193;50.866;5.420;2024-02-14T00:50:11;11.10;65.80
83289;DHT22;73193;50.866;5.420;2024-02-14T00:51:44;11.00;65.80
83289;DHT22;73193;50.866;5.420;2024-02-14T00:53:14;11.10;65.50
83289;DHT22;73193;50.866;5.420;2024-02-14T00:54:45;11.10;65.70
83289;DHT22;73193;50.866;5.420;2024-02-14T00:56:16;11.10;65.70
83289;DHT22;73193;50.866;5.420;2024-02-14T00:57:47;11.10;65.50
83289;DHT22;73193;50.866;5.420;2024-02-14T00:59:18;11.10;65.50
83289;DHT22;73193;50.866;5.420;2024-02-14T01:00:49;11.20;65.30
83289;DHT22;73193;50.866;5.420;2024-02-14T01:02:19;11.10;65.70
83289;DHT22;73193;50.866;5.420;2024-02-14T01:03:50;11.20;65.50
83289;DHT22;73193;50.866;5.420;2024-02-14T01:05:20;11.10;65.50
83289;DHT22;73193;50.866;5.420;2024-02-14T01:06:51;11.30;65.70
83289;DHT22;73193;50.866;5.420;2024-02-14T01:08:22;11.30;65.40
83289;DHT22;73193;50.866;5.420;2024-02-14T01:09:52;11.10;65.60
83289;DHT22;73193;50.866;5.420;2024-02-14T01:11:23;11.10;65.80
83289;DHT22;73193;50.866;5.420;2024-02-14T01:12:54;11.10;65.90
83289;DHT22;73193;50.866;5.420;2024-02-14T01:14:25;11.00;66.20
83289;DHT22;73193;50.866;5.420;2024-02-14T01:15:56;11.00;66.20
83289;DHT22;73193;50.866;5.420;2024-02-14T01:17:26;11.10;65.80
83289;DHT22;73193;50.866;5.420;2024-02-14T01:18:57;11.00;66.20
83289;DHT22;73193;50.866;5.420;2024-02-14T01:20:28;11.10;66.10
83289;DHT22;73193;50.866;5.420;2024-02-14T01:21:58;11.10;65.80
83289;DHT22;73193;50.866;5.420;2024-02-14T01:23:29;11.10;65.70
83289;DHT22;73193;50.866;5.420;2024-02-14T01:25:00;11.00;66.10
83289;DHT22;73193;50.866;5.420;2024-02-14T01:26:32;11.10;66.20
83289;DHT22;73193;50.866;5.420;2024-02-14T01:28:02;11.00;66.20
83289;DHT22;73193;50.866;5.420;2024-02-14T01:29:35;11.10;65.90
83289;DHT22;73193;50.866;5.420;2024-02-14T01:31:05;11.30;65.70
83289;DHT22;73193;50.866;5.420;2024-02-14T01:32:37;11.10;65.80
83289;DHT22;73193;50.866;5.420;2024-02-14T01:34:08;11.20;65.90
83289;DHT22;73193;50.866;5.420;2024-02-14T01:35:38;11.30;65.70
83289;DHT22;73193;50.866;5.420;2024-02-14T01:37:09;11.30;65.60
83289;DHT22;73193;50.866;5.420;2024-02-14T01:38:40;11.40;65.30
83289;DHT22;73193;50.866;5.420;2024-02-14T01:40:11;11.30;65.40
83289;DHT22;73193;50.866;5.420;2024-02-14T01:41:45;11.30;65.70
83289;DHT22;73193;50.866;5.420;2024-02-14T01:43:20;11.40;65.40
83289;DHT22;73193;50.866;5.420;2024-02-14T01:44:51;11.30;65.90
83289;DHT22;73193;50.866;5.420;2024-02-14T01:46:21;11.30;65.50
83289;DHT22;73193;50.866;5.420;2024-02-14T01:47:52;11.20;65.50
83289;DHT22;73193;50.866;5.420;2024-02-14T01:49:23;11.10;65.70
83289;DHT22;73193;50.866;5.420;2024-02-14T01:50:54;11.10;65.80
83289;DHT22;73193;50.866;5.420;2024-02-14T01:52:25;11.10;65.80
83289;DHT22;73193;50.866;5.420;2024-02-14T01:53:56;11.20;65.80
83289;DHT22;73193;50.866;5.420;2024-02-14T01:55:29;11.40;65.70
83289;DHT22;73193;50.866;5.420;2024-02-14T01:57:00;11.40;65.50
83289;DHT22;73193;50.866;5.420;2024-02-14T01:58:33;11.30;65.60
83289;DHT22;73193;50.866;5.420;2024-02-14T02:00:04;11.40;65.40
83289;DHT22;73193;50.866;5.420;2024-02-14T02:01:38;11.30;65.70
83289;DHT22;73193;50.866;5.420;2024-02-14T02:03:10;11.40;65.60
83289;DHT22;73193;50.866;5.420;2024-02-14T02:04:41;11.30;65.50
83289;DHT22;73193;50.866;5.420;2024-02-14T02:06:12;11.40;65.40
83289;DHT22;73193;50.866;5.420;2024-02-14T02:07:43;11.30;65.70
83289;DHT22;73193;50.866;5.420;2024-02-14T02:09:14;11.40;65.60
83289;DHT22;73193;50.866;5.420;2024-02-14T02:10:45;11.30;65.70
83289;DHT22;73193;50.866;5.420;2024-02-14T02:12:16;11.30;65.80
83289;DHT22;73193;50.866;5.420;2024-02-14T02:13:46;11.40;65.40
83289;DHT22;73193;50.866;5.420;2024-02-14T02:15:18;11.40;65.60
83289;DHT22;73193;50.866;5.420;2024-02-14T02:16:49;11.30;65.90
83289;DHT22;73193;50.866;5.420;2024-02-14T02:18:20;11.40;65.70
83289;DHT22;73193;50.866;5.420;2024-02-14T02:19:53;11.40;65.80
83289;DHT22;73193;50.866;5.420;2024-02-14T02:21:24;11.50;65.70
83289;DHT22;73193;50.866;5.420;2024-02-14T02:22:55;11.50;65.70
83289;DHT22;73193;50.866;5.420;2024-02-14T02:24:25;11.50;65.80
83289;DHT22;73193;50.866;5.420;2024-02-14T02:25:56;11.50;65.80
83289;DHT22;73193;50.866;5.420;2024-02-14T02:27:27;11.50;66.20
83289;DHT22;73193;50.866;5.420;2024-02-14T02:28:57;11.50;66.20
83289;DHT22;73193;50.866;5.420;2024-02-14T02:30:28;11.30;66.70
83289;DHT22;73193;50.866;5.420;2024-02-14T02:31:59;11.50;66.40
83289;DHT22;73193;50.866;5.420;2024-02-14T02:33:29;11.50;66.30
83289;DHT22;73193;50.866;5.420;2024-02-14T02:35:00;11.50;66.30
83289;DHT22;73193;50.866;5.420;2024-02-14T02:36:31;11.50;66.30
83289;DHT22;73193;50.866;5.420;2024-02-14T02:38:02;11.60;66.30
83289;DHT22;73193;50.866;5.420;2024-02-14T02:39:33;11.50;66.10
83289;DHT22;73193;50.866;5.420;2024-02-14T02:41:05;11.50;66.50
83289;DHT22;73193;50.866;5.420;2024-02-14T02:42:38;11.50;66.30
83289;DHT22;73193;50.866;5.420;2024-02-14T02:44:09;11.50;66.40
83289;DHT22;73193;50.866;5.420;2024-02-14T02:45:39;11.50;66.50
83289;DHT22;73193;50.866;5.420;2024-02-14T02:47:10;11.40;66.60
83289;DHT22;73193;50.866;5.420;2024-02-14T02:48:42;11.40;67.00
83289;DHT22;73193;50.866;5.420;2024-02-14T02:50:14;11.40;66.70
83289;DHT22;73193;50.866;5.420;2024-02-14T02:51:44;11.40;66.90
83289;DHT22;73193;50.866;5.420;2024-02-14T02:53:16;11.40;66.80
83289;DHT22;73193;50.866;5.420;2024-02-14T02:54:47;11.40;66.90
83289;DHT22;73193;50.866;5.420;2024-02-14T02:56:18;11.40;66.90
83289;DHT22;73193;50.866;5.420;2024-02-14T02:57:49;11.30;67.10
83289;DHT22;73193;50.866;5.420;2024-02-14T02:59:19;11.20;67.40
83289;DHT22;73193;50.866;5.420;2024-02-14T03:00:50;11.10;67.70
83289;DHT22;73193;50.866;5.420;2024-02-14T03:02:21;11.10;67.50
83289;DHT22;73193;50.866;5.420;2024-02-14T03:03:53;11.30;67.30
83289;DHT22;73193;50.866;5.420;2024-02-14T03:05:24;11.30;67.40
83289;DHT22;73193;50.866;5.420;2024-02-14T03:06:54;11.30;66.90
83289;DHT22;73193;50.866;5.420;2024-02-14T03:08:25;11.40;67.20
83289;DHT22;73193;50.866;5.420;2024-02-14T03:09:56;11.40;67.10
83289;DHT22;73193;50.866;5.420;2024-02-14T03:11:27;11.40;67.20
83289;DHT22;73193;50.866;5.420;2024-02-14T03:12:58;11.30;67.10
83289;DHT22;73193;50.866;5.420;2024-02-14T03:14:31;11.20;67.50
83289;DHT22;73193;50.866;5.420;2024-02-14T03:16:02;11.30;67.40
83289;DHT22;73193;50.866;5.420;2024-02-14T03:17:34;11.30;67.50
83289;DHT22;73193;50.866;5.420;2024-02-14T03:19:06;11.30;67.50
83289;DHT22;73193;50.866;5.420;2024-02-14T03:20:36;11.40;67.00
83289;DHT22;73193;50.866;5.420;2024-02-14T03:22:07;11.40;67.20
83289;DHT22;73193;50.866;5.420;2024-02-14T03:23:39;11.40;67.20
83289;DHT22;73193;50.866;5.420;2024-02-14T03:25:18;11.40;67.10
83289;DHT22;73193;50.866;5.420;2024-02-14T03:26:48;11.30;67.40
83289;DHT22;73193;50.866;5.420;2024-02-14T03:28:21;11.30;67.20
83289;DHT22;73193;50.866;5.420;2024-02-14T03:29:52;11.40;67.00
83289;DHT22;73193;50.866;5.420;2024-02-14T03:31:23;11.40;67.10
83289;DHT22;73193;50.866;5.420;2024-02-14T03:32:55;11.30;67.70
83289;DHT22;73193;50.866;5.420;2024-02-14T03:34:26;11.40;67.70
83289;DHT22;73193;50.866;5.420;2024-02-14T03:36:00;11.40;67.40
83289;DHT22;73193;50.866;5.420;2024-02-14T03:37:32;11.40;67.40
83289;DHT22;73193;50.866;5.420;2024-02-14T03:39:02;11.30;67.70
83289;DHT22;73193;50.866;5.420;2024-02-14T03:40:35;11.20;67.90
83289;DHT22;73193;50.866;5.420;2024-02-14T03:42:07;11.30;68.00
83289;DHT22;73193;50.866;5.420;2024-02-14T03:43:38;11.10;68.20
83289;DHT22;73193;50.866;5.420;2024-02-14T03:45:09;11.10;68.50
83289;DHT22;73193;50.866;5.420;2024-02-14T03:46:40;11.10;68.10
83289;DHT22;73193;50.866;5.420;2024-02-14T03:48:10;11.20;68.00
83289;DHT22;73193;50.866;5.420;2024-02-14T03:49:42;11.10;68.00
83289;DHT22;73193;50.866;5.420;2024-02-14T03:51:13;11.30;67.80
83289;DHT22;73193;50.866;5.420;2024-02-14T03:52:44;11.40;67.70
83289;DHT22;73193;50.866;5.420;2024-02-14T03:54:14;11.40;67.40
83289;DHT22;73193;50.866;5.420;2024-02-14T03:55:45;11.40;67.30
83289;DHT22;73193;50.866;5.420;2024-02-14T03:57:16;11.50;67.20
83289;DHT22;73193;50.866;5.420;2024-02-14T03:58:48;11.40;67.40
83289;DHT22;73193;50.866;5.420;2024-02-14T04:00:18;11.50;67.10
83289;DHT22;73193;50.866;5.420;2024-02-14T04:01:50;11.50;66.80
83289;DHT22;73193;50.866;5.420;2024-02-14T04:03:23;11.50;67.20
83289;DHT22;73193;50.866;5.420;2024-02-14T04:04:54;11.40;67.60
83289;DHT22;73193;50.866;5.420;2024-02-14T04:06:24;11.50;67.40
83289;DHT22;73193;50.866;5.420;2024-02-14T04:07:57;11.50;67.20
83289;DHT22;73193;50.866;5.420;2024-02-14T04:09:27;11.60;67.00
83289;DHT22;73193;50.866;5.420;2024-02-14T04:10:58;11.50;67.20
83289;DHT22;73193;50.866;5.420;2024-02-14T04:12:29;11.50;67.10
83289;DHT22;73193;50.866;5.420;2024-02-14T04:14:00;11.70;67.00
83289;DHT22;73193;50.866;5.420;2024-02-14T04:15:31;11.50;67.10
83289;DHT22;73193;50.866;5.420;2024-02-14T04:17:02;11.50;67.20
83289;DHT22;73193;50.866;5.420;2024-02-14T04:18:32;11.60;67.10
83289;DHT22;73193;50.866;5.420;2024-02-14T04:20:03;11.50;67.40
83289;DHT22;73193;50.866;5.420;2024-02-14T04:21:34;11.70;67.00
83289;DHT22;73193;50.866;5.420;2024-02-14T04:23:05;11.60;67.30
83289;DHT22;73193;50.866;5.420;2024-02-14T04:24:37;11.60;67.10
83289;DHT22;73193;50.866;5.420;2024-02-14T04:26:08;11.50;67.70
83289;DHT22;73193;50.866;5.420;2024-02-14T04:27:39;11.50;67.60
83289;DHT22;73193;50.866;5.420;2024-02-14T04:29:09;11.60;67.70
83289;DHT22;73193;50.866;5.420;2024-02-14T04:30:41;11.50;68.00
83289;DHT22;73193;50.866;5.420;2024-02-14T04:32:12;11.50;67.80
83289;DHT22;73193;50.866;5.420;2024-02-14T04:33:43;11.70;67.50
83289;DHT22;73193;50.866;5.420;2024-02-14T04:35:14;11.70;67.80
83289;DHT22;73193;50.866;5.420;2024-02-14T04:36:45;11.60;67.80
83289;DHT22;73193;50.866;5.420;2024-02-14T04:38:16;11.70;67.60
83289;DHT22;73193;50.866;5.420;2024-02-14T04:39:48;11.50;68.10
83289;DHT22;73193;50.866;5.420;2024-02-14T04:41:19;11.70;67.80
83289;DHT22;73193;50.866;5.420;2024-02-14T04:42:50;11.70;67.40
83289;DHT22;73193;50.866;5.420;2024-02-14T04:44:20;11.50;68.00
83289;DHT22;73193;50.866;5.420;2024-02-14T04:45:51;11.50;68.10
83289;DHT22;73193;50.866;5.420;2024-02-14T04:47:22;11.50;68.00
83289;DHT22;73193;50.866;5.420;2024-02-14T04:48:53;11.50;68.00
83289;DHT22;73193;50.866;5.420;2024-02-14T04:50:24;11.70;67.90
83289;DHT22;73193;50.866;5.420;2024-02-14T04:51:55;11.50;68.50
83289;DHT22;73193;50.866;5.420;2024-02-14T04:53:26;11.50;68.30
83289;DHT22;73193;50.866;5.420;2024-02-14T04:54:57;11.50;68.90
83289;DHT22;73193;50.866;5.420;2024-02-14T04:56:27;11.70;68.50
83289;DHT22;73193;50.866;5.420;2024-02-14T04:57:58;11.70;68.40
83289;DHT22;73193;50.866;5.420;2024-02-14T04:59:28;11.50;68.50
83289;DHT22;73193;50.866;5.420;2024-02-14T05:00:59;11.50;68.70
83289;DHT22;73193;50.866;5.420;2024-02-14T05:02:30;11.50;68.90
83289;DHT22;73193;50.866;5.420;2024-02-14T05:04:01;11.60;68.70
83289;DHT22;73193;50.866;5.420;2024-02-14T05:05:32;11.60;68.30
83289;DHT22;73193;50.866;5.420;2024-02-14T05:07:04;11.50;69.00
83289;DHT22;73193;50.866;5.420;2024-02-14T05:08:35;11.60;68.70
83289;DHT22;73193;50.866;5.420;2024-02-14T05:10:06;11.70;68.30
83289;DHT22;73193;50.866;5.420;2024-02-14T05:11:37;11.70;68.40
83289;DHT22;73193;50.866;5.420;2024-02-14T05:13:08;11.50;68.60
83289;DHT22;73193;50.866;5.420;2024-02-14T05:14:38;11.50;69.00
83289;DHT22;73193;50.866;5.420;2024-02-14T05:16:10;11.50;68.60
83289;DHT22;73193;50.866;5.420;2024-02-14T05:17:44;11.50;68.70
83289;DHT22;73193;50.866;5.420;2024-02-14T05:19:15;11.50;68.90
83289;DHT22;73193;50.866;5.420;2024-02-14T05:20:46;11.60;68.50
83289;DHT22;73193;50.866;5.420;2024-02-14T05:22:16;11.70;68.40
83289;DHT22;73193;50.866;5.420;2024-02-14T05:23:47;11.70;68.70
83289;DHT22;73193;50.866;5.420;2024-02-14T05:25:18;11.70;68.60
83289;DHT22;73193;50.866;5.420;2024-02-14T05:26:49;11.70;68.50
83289;DHT22;73193;50.866;5.420;2024-02-14T05:28:20;11.70;68.80
83289;DHT22;73193;50.866;5.420;2024-02-14T05:29:51;11.70;69.00
83289;DHT22;73193;50.866;5.420;2024-02-14T05:31:22;11.50;69.30
83289;DHT22;73193;50.866;5.420;2024-02-14T05:32:52;11.50;69.10
83289;DHT22;73193;50.866;5.420;2024-02-14T05:34:23;11.50;69.00
83289;DHT22;73193;50.866;5.420;2024-02-14T05:35:54;11.70;68.80
83289;DHT22;73193;50.866;5.420;2024-02-14T05:37:25;11.70;68.60
83289;DHT22;73193;50.866;5.420;2024-02-14T05:38:57;11.70;68.40
83289;DHT22;73193;50.866;5.420;2024-02-14T05:40:28;11.70;68.30
83289;DHT22;73193;50.866;5.420;2024-02-14T05:41:59;11.60;68.60
83289;DHT22;73193;50.866;5.420;2024-02-14T05:43:29;11.70;68.70
83289;DHT22;73193;50.866;5.420;2024-02-14T05:45:00;11.70;68.70
83289;DHT22;73193;50.866;5.420;2024-02-14T05:46:32;11.70;68.60
83289;DHT22;73193;50.866;5.420;2024-02-14T05:48:03;11.70;68.80
83289;DHT22;73193;50.866;5.420;2024-02-14T05:49:34;11.70;68.30
83289;DHT22;73193;50.866;5.420;2024-02-14T05:51:04;11.70;68.30
83289;DHT22;73193;50.866;5.420;2024-02-14T05:52:35;11.70;68.30
83289;DHT22;73193;50.866;5.420;2024-02-14T05:54:06;11.70;68.30
83289;DHT22;73193;50.866;5.420;2024-02-14T05:55:36;11.70;68.40
83289;DHT22;73193;50.866;5.420;2024-02-14T05:57:07;11.70;68.30
83289;DHT22;73193;50.866;5.420;2024-02-14T05:58:38;11.70;68.30
83289;DHT22;73193;50.866;5.420;2024-02-14T06:00:09;11.70;68.20
83289;DHT22;73193;50.866;5.420;2024-02-14T06:01:40;11.70;68.60
83289;DHT22;73193;50.866;5.420;2024-02-14T06:03:11;11.70;68.40
83289;DHT22;73193;50.866;5.420;2024-02-14T06:04:42;11.70;68.40
83289;DHT22;73193;50.866;5.420;2024-02-14T06:06:13;11.70;68.30
83289;DHT22;73193;50.866;5.420;2024-02-14T06:07:43;11.70;68.60
83289;DHT22;73193;50.866;5.420;2024-02-14T06:09:15;11.70;68.40
83289;DHT22;73193;50.866;5.420;2024-02-14T06:10:46;11.80;68.10
83289;DHT22;73193;50.866;5.420;2024-02-14T06:12:18;11.80;68.30
83289;DHT22;73193;50.866;5.420;2024-02-14T06:13:48;11.80;68.50
83289;DHT22;73193;50.866;5.420;2024-02-14T06:15:19;11.80;68.30
83289;DHT22;73193;50.866;5.420;2024-02-14T06:16:50;11.70;68.70
83289;DHT22;73193;50.866;5.420;2024-02-14T06:18:20;11.80;68.10
83289;DHT22;73193;50.866;5.420;2024-02-14T06:19:51;11.80;68.20
83289;DHT22;73193;50.866;5.420;2024-02-14T06:21:22;11.90;68.00
83289;DHT22;73193;50.866;5.420;2024-02-14T06:22:52;11.90;67.90
83289;DHT22;73193;50.866;5.420;2024-02-14T06:24:23;11.90;68.00
83289;DHT22;73193;50.866;5.420;2024-02-14T06:25:54;11.90;68.20
83289;DHT22;73193;50.866;5.420;2024-02-14T06:27:24;11.90;68.20
83289;DHT22;73193;50.866;5.420;2024-02-14T06:28:55;11.90;67.90
83289;DHT22;73193;50.866;5.420;2024-02-14T06:30:25;11.90;68.00
83289;DHT22;73193;50.866;5.420;2024-02-14T06:31:56;11.90;68.40
83289;DHT22;73193;50.866;5.420;2024-02-14T06:33:27;11.90;68.10
83289;DHT22;73193;50.866;5.420;2024-02-14T06:34:57;11.90;67.80
83289;DHT22;73193;50.866;5.420;2024-02-14T06:36:28;11.90;68.00
83289;DHT22;73193;50.866;5.420;2024-02-14T06:37:59;11.90;68.10
83289;DHT22;73193;50.866;5.420;2024-02-14T06:39:29;11.90;68.10
83289;DHT22;73193;50.866;5.420;2024-02-14T06:41:00;11.90;68.10
83289;DHT22;73193;50.866;5.420;2024-02-14T06:42:31;11.90;67.90
83289;DHT22;73193;50.866;5.420;2024-02-14T06:44:02;11.90;68.00
83289;DHT22;73193;50.866;5.420;2024-02-14T06:45:33;11.90;67.70
83289;DHT22;73193;50.866;5.420;2024-02-14T06:47:03;12.00;67.80
83289;DHT22;73193;50.866;5.420;2024-02-14T06:48:34;12.00;67.60
83289;DHT22;73193;50.866;5.420;2024-02-14T06:50:05;12.00;67.50
83289;DHT22;73193;50.866;5.420;2024-02-14T06:51:36;12.00;67.70
83289;DHT22;73193;50.866;5.420;2024-02-14T06:53:07;12.00;67.70
83289;DHT22;73193;50.866;5.420;2024-02-14T06:54:37;11.90;68.00
83289;DHT22;73193;50.866;5.420;2024-02-14T06:56:08;12.00;67.50
83289;DHT22;73193;50.866;5.420;2024-02-14T06:57:39;11.90;68.20
83289;DHT22;73193;50.866;5.420;2024-02-14T06:59:10;12.00;68.00
83289;DHT22;73193;50.866;5.420;2024-02-14T07:00:40;12.00;67.60
83289;DHT22;73193;50.866;5.420;2024-02-14T07:02:11;12.00;67.60
83289;DHT22;73193;50.866;5.420;2024-02-14T07:03:42;12.00;67.60
83289;DHT22;73193;50.866;5.420;2024-02-14T07:05:12;12.00;67.50
83289;DHT22;73193;50.866;5.420;2024-02-14T07:06:44;12.10;67.30
83289;DHT22;73193;50.866;5.420;2024-02-14T07:08:15;12.10;67.30
83289;DHT22;73193;50.866;5.420;2024-02-14T07:09:46;12.00;67.70
83289;DHT22;73193;50.866;5.420;2024-02-14T07:11:17;12.00;67.50
83289;DHT22;73193;50.866;5.420;2024-02-14T07:12:47;12.10;67.40
83289;DHT22;73193;50.866;5.420;2024-02-14T07:14:18;12.10;67.10
83289;DHT22;73193;50.866;5.420;2024-02-14T07:15:49;12.10;67.00
83289;DHT22;73193;50.866;5.420;2024-02-14T07:17:20;12.10;67.20
83289;DHT22;73193;50.866;5.420;2024-02-14T07:18:51;12.10;67.20
83289;DHT22;73193;50.866;5.420;2024-02-14T07:20:21;12.20;67.20
83289;DHT22;73193;50.866;5.420;2024-02-14T07:21:52;12.10;67.20
83289;DHT22;73193;50.866;5.420;2024-02-14T07:23:23;12.10;67.30
83289;DHT22;73193;50.866;5.420;2024-02-14T07:24:53;12.20;67.30
83289;DHT22;73193;50.866;5.420;2024-02-14T07:26:24;12.20;67.30
83289;DHT22;73193;50.866;5.420;2024-02-14T07:27:55;12.30;67.00
83289;DHT22;73193;50.866;5.420;2024-02-14T07:29:25;12.30;67.10
83289;DHT22;73193;50.866;5.420;2024-02-14T07:30:56;12.30;67.00
83289;DHT22;73193;50.866;5.420;2024-02-14T07:32:27;12.30;66.60
83289;DHT22;73193;50.866;5.420;2024-02-14T07:33:58;12.30;67.00
83289;DHT22;73193;50.866;5.420;2024-02-14T07:35:29;12.50;66.70
83289;DHT22;73193;50.866;5.420;2024-02-14T07:37:00;12.50;66.50
83289;DHT22;73193;50.866;5.420;2024-02-14T07:38:30;12.50;66.40
83289;DHT22;73193;50.866;5.420;2024-02-14T07:40:01;12.50;66.40
83289;DHT22;73193;50.866;5.420;2024-02-14T07:41:32;12.50;66.70
83289;DHT22;73193;50.866;5.420;2024-02-14T07:43:02;12.50;66.40
83289;DHT22;73193;50.866;5.420;2024-02-14T07:44:33;12.50;66.70
83289;DHT22;73193;50.866;5.420;2024-02-14T07:46:04;12.50;66.30
83289;DHT22;73193;50.866;5.420;2024-02-14T07:47:36;12.50;66.30
83289;DHT22;73193;50.866;5.420;2024-02-14T07:49:06;12.50;66.40
83289;DHT22;73193;50.866;5.420;2024-02-14T07:50:38;12.50;66.50
83289;DHT22;73193;50.866;5.420;2024-02-14T07:52:09;12.50;66.30
83289;DHT22;73193;50.866;5.420;2024-02-14T07:53:39;12.60;66.40
83289;DHT22;73193;50.866;5.420;2024-02-14T07:55:11;12.70;65.90
83289;DHT22;73193;50.866;5.420;2024-02-14T07:56:42;12.70;66.20
83289;DHT22;73193;50.866;5.420;2024-02-14T07:58:13;12.80;66.00
83289;DHT22;73193;50.866;5.420;2024-02-14T07:59:44;13.00;65.80
83289;DHT22;73193;50.866;5.420;2024-02-14T08:01:14;13.00;65.40
83289;DHT22;73193;50.866;5.420;2024-02-14T08:02:45;12.90;65.80
83289;DHT22;73193;50.866;5.420;2024-02-14T08:04:15;12.90;65.80
83289;DHT22;73193;50.866;5.420;2024-02-14T08:05:47;12.90;65.80
83289;DHT22;73193;50.866;5.420;2024-02-14T08:07:17;12.90;66.00
83289;DHT22;73193;50.866;5.420;2024-02-14T08:08:48;12.80;66.10
83289;DHT22;73193;50.866;5.420;2024-02-14T08:10:24;12.70;66.30
83289;DHT22;73193;50.866;5.420;2024-02-14T08:11:55;12.70;66.10
83289;DHT22;73193;50.866;5.420;2024-02-14T08:13:25;12.70;66.10
83289;DHT22;73193;50.866;5.420;2024-02-14T08:14:56;12.70;66.30
83289;DHT22;73193;50.866;5.420;2024-02-14T08:16:27;12.80;66.30
83289;DHT22;73193;50.866;5.420;2024-02-14T08:17:57;12.90;66.00
83289;DHT22;73193;50.866;5.420;2024-02-14T08:19:29;12.90;66.20
83289;DHT22;73193;50.866;5.420;2024-02-14T08:21:00;12.90;65.80
83289;DHT22;73193;50.866;5.420;2024-02-14T08:22:31;13.00;66.00
83289;DHT22;73193;50.866;5.420;2024-02-14T08:24:01;13.00;65.60
83289;DHT22;73193;50.866;5.420;2024-02-14T08:25:32;13.10;65.80
83289;DHT22;73193;50.866;5.420;2024-02-14T08:27:03;13.10;65.50
83289;DHT22;73193;50.866;5.420;2024-02-14T08:28:37;13.10;65.40
83289;DHT22;73193;50.866;5.420;2024-02-14T08:30:09;13.10;65.30
83289;DHT22;73193;50.866;5.420;2024-02-14T08:31:42;13.10;65.70
83289;DHT22;73193;50.866;5.420;2024-02-14T08:33:12;13.30;65.30
83289;DHT22;73193;50.866;5.420;2024-02-14T08:34:43;13.20;65.40
83289;DHT22;73193;50.866;5.420;2024-02-14T08:36:14;13.20;65.20
83289;DHT22;73193;50.866;5.420;2024-02-14T08:37:47;13.30;65.50
83289;DHT22;73193;50.866;5.420;2024-02-14T08:39:17;13.30;65.20
83289;DHT22;73193;50.866;5.420;2024-02-14T08:40:48;13.30;65.20
83289;DHT22;73193;50.866;5.420;2024-02-14T08:42:19;13.30;65.30
83289;DHT22;73193;50.866;5.420;2024-02-14T08:43:49;13.20;65.50
83289;DHT22;73193;50.866;5.420;2024-02-14T08:45:21;13.30;65.10
83289;DHT22;73193;50.866;5.420;2024-02-14T08:46:51;13.10;65.30
83289;DHT22;73193;50.866;5.420;2024-02-14T08:48:23;13.10;65.70
83289;DHT22;73193;50.866;5.420;2024-02-14T08:49:55;13.00;65.40
83289;DHT22;73193;50.866;5.420;2024-02-14T08:51:25;13.10;66.10
83289;DHT22;73193;50.866;5.420;2024-02-14T08:52:56;13.10;66.20
83289;DHT22;73193;50.866;5.420;2024-02-14T08:54:27;13.10;65.80
83289;DHT22;73193;50.866;5.420;2024-02-14T08:55:58;13.20;65.30
83289;DHT22;73193;50.866;5.420;2024-02-14T08:57:29;13.30;65.40
83289;DHT22;73193;50.866;5.420;2024-02-14T08:59:02;13.30;65.20
83289;DHT22;73193;50.866;5.420;2024-02-14T09:00:33;13.30;65.30
83289;DHT22;73193;50.866;5.420;2024-02-14T09:02:05;13.30;65.10
83289;DHT22;73193;50.866;5.420;2024-02-14T09:03:36;13.50;65.20
83289;DHT22;73193;50.866;5.420;2024-02-14T09:05:07;13.50;65.10
83289;DHT22;73193;50.866;5.420;2024-02-14T09:06:40;13.50;64.90
83289;DHT22;73193;50.866;5.420;2024-02-14T09:08:11;13.60;65.00
83289;DHT22;73193;50.866;5.420;2024-02-14T09:09:41;13.70;64.50
83289;DHT22;73193;50.866;5.420;2024-02-14T09:11:12;13.60;65.20
83289;DHT22;73193;50.866;5.420;2024-02-14T09:12:43;13.70;64.80
83289;DHT22;73193;50.866;5.420;2024-02-14T09:14:14;13.80;64.60
83289;DHT22;73193;50.866;5.420;2024-02-14T09:15:44;13.90;64.20
83289;DHT22;73193;50.866;5.420;2024-02-14T09:17:15;13.80;64.40
83289;DHT22;73193;50.866;5.420;2024-02-14T09:18:46;13.90;64.60
83289;DHT22;73193;50.866;5.420;2024-02-14T09:20:17;14.00;64.30
83289;DHT22;73193;50.866;5.420;2024-02-14T09:21:49;13.90;64.40
83289;DHT22;73193;50.866;5.420;2024-02-14T09:23:20;13.80;64.60
83289;DHT22;73193;50.866;5.420;2024-02-14T09:24:52;13.70;64.90
83289;DHT22;73193;50.866;5.420;2024-02-14T09:26:23;13.80;65.20
83289;DHT22;73193;50.866;5.420;2024-02-14T09:27:54;13.80;64.70
83289;DHT22;73193;50.866;5.420;2024-02-14T09:29:24;13.70;64.90
83289;DHT22;73193;50.866;5.420;2024-02-14T09:30:55;13.70;65.20
83289;DHT22;73193;50.866;5.420;2024-02-14T09:32:26;13.80;64.90
83289;DHT22;73193;50.866;5.420;2024-02-14T09:33:56;13.70;65.20